Time,TemperatureF,DewpointF,PressureIn,WindDirection,WindDirectionDegrees,WindSpeedMPH,WindSpeedGustMPH,Humidity,HourlyPrecipIn,Conditions,Clouds,dailyrainin,SoftwareType,DateUTC
2013-02-03 00:05:00,54.0,48.3,30.23,NNW,337,6.0,9.0,81,0.00,,,0.00,Weather View 32 v70,2013-02-03 05:05:00,
2013-02-03 00:10:00,54.0,48.3,30.22,NNW,337,5.0,9.0,81,0.00,,,0.00,Weather View 32 v70,2013-02-03 05:10:00,
2013-02-03 00:15:00,55.0,49.3,30.22,NNW,337,7.0,9.0,81,0.00,,,0.00,Weather View 32 v70,2013-02-03 05:15:00,
2013-02-03 00:20:00,55.0,49.6,30.22,NNW,337,6.0,9.0,82,0.00,,,0.00,Weather View 32 v70,2013-02-03 05:20:00,
2013-02-03 00:25:00,54.0,48.6,30.22,NNW,337,5.0,9.0,82,0.00,,,0.00,Weather View 32 v70,2013-02-03 05:25:00,
2013-02-03 00:30:00,55.0,49.6,30.22,NNW,337,7.0,9.0,82,0.00,,,0.00,Weather View 32 v70,2013-02-03 05:30:00,
2013-02-03 00:37:00,55.0,49.6,30.22,NNW,337,7.0,9.0,82,0.00,,,0.00,Weather View 32 v70,2013-02-03 05:37:00,
2013-02-03 00:45:00,54.0,48.3,30.22,NNW,337,6.0,9.0,81,0.00,,,0.00,Weather View 32 v70,2013-02-03 05:45:00,
2013-02-03 00:50:00,54.0,48.6,30.22,NNW,337,5.0,8.0,82,0.00,,,0.00,Weather View 32 v70,2013-02-03 05:50:00,
2013-02-03 00:55:00,54.0,48.3,30.22,NNW,337,6.0,8.0,81,0.00,,,0.00,Weather View 32 v70,2013-02-03 05:55:00,
2013-02-03 01:00:00,54.0,48.6,30.22,NNW,337,6.0,8.0,82,0.00,,,0.00,Weather View 32 v70,2013-02-03 06:00:00,
2013-02-03 01:05:00,54.0,48.3,30.22,NNW,337,3.0,8.0,81,0.00,,,0.00,Weather View 32 v70,2013-02-03 06:05:00,
2013-02-03 01:10:00,54.0,48.3,30.21,NNW,337,4.0,8.0,81,0.00,,,0.00,Weather View 32 v70,2013-02-03 06:10:00,
2013-02-03 01:15:00,53.0,47.0,30.21,NNW,337,4.0,8.0,80,0.00,,,0.00,Weather View 32 v70,2013-02-03 06:15:00,
2013-02-03 01:20:00,54.0,48.6,30.21,NNW,337,4.0,8.0,82,0.00,,,0.00,Weather View 32 v70,2013-02-03 06:20:00,
2013-02-03 01:25:00,53.0,47.0,30.21,NNW,337,2.0,8.0,80,0.00,,,0.00,Weather View 32 v70,2013-02-03 06:25:00,
2013-02-03 01:30:00,53.0,47.3,30.20,NNW,337,0.0,8.0,81,0.00,,,0.00,Weather View 32 v70,2013-02-03 06:30:00,
2013-02-03 01:38:00,53.0,47.0,30.20,NNW,337,3.0,8.0,80,0.00,,,0.00,Weather View 32 v70,2013-02-03 06:38:00,
2013-02-03 01:45:00,52.0,46.0,30.20,NNW,337,0.0,8.0,80,0.00,,,0.00,Weather View 32 v70,2013-02-03 06:45:00,
2013-02-03 01:50:00,52.0,46.0,30.19,North,360,0.0,8.0,80,0.00,,,0.00,Weather View 32 v70,2013-02-03 06:50:00,
2013-02-03 01:55:00,51.0,45.0,30.19,North,360,0.0,8.0,80,0.00,,,0.00,Weather View 32 v70,2013-02-03 06:55:00,
2013-02-03 02:00:00,51.0,45.0,30.19,North,360,0.0,8.0,80,0.00,,,0.00,Weather View 32 v70,2013-02-03 07:00:00,
2013-02-03 02:05:00,51.0,45.0,30.19,North,360,0.0,8.0,80,0.00,,,0.00,Weather View 32 v70,2013-02-03 07:05:00,
2013-02-03 02:10:00,50.0,44.1,30.19,NNW,337,0.0,8.0,80,0.00,,,0.00,Weather View 32 v70,2013-02-03 07:10:00,
2013-02-03 02:15:00,50.0,44.1,30.19,NNW,337,0.0,8.0,80,0.00,,,0.00,Weather View 32 v70,2013-02-03 07:15:00,
2013-02-03 02:20:00,50.0,44.1,30.19,NNW,337,0.0,6.0,80,0.00,,,0.00,Weather View 32 v70,2013-02-03 07:20:00,
2013-02-03 02:25:00,50.0,44.1,30.18,NNW,337,0.0,6.0,80,0.00,,,0.00,Weather View 32 v70,2013-02-03 07:25:00,
2013-02-03 02:30:00,50.0,44.1,30.18,NNW,337,0.0,6.0,80,0.00,,,0.00,Weather View 32 v70,2013-02-03 07:30:00,
2013-02-03 02:35:00,50.0,44.1,30.18,NNW,337,0.0,6.0,80,0.00,,,0.00,Weather View 32 v70,2013-02-03 07:35:00,
2013-02-03 02:40:00,49.0,43.1,30.17,NNW,337,0.0,5.0,80,0.00,,,0.00,Weather View 32 v70,2013-02-03 07:40:00,
2013-02-03 02:50:00,47.0,40.8,30.17,NNW,337,0.0,0.0,79,0.00,,,0.00,Weather View 32 v70,2013-02-03 07:50:00,
2013-02-03 02:55:00,47.0,40.8,30.17,NNW,337,0.0,0.0,79,0.00,,,0.00,Weather View 32 v70,2013-02-03 07:55:00,
2013-02-03 03:00:00,47.0,40.8,30.17,NNW,337,0.0,0.0,79,0.00,,,0.00,Weather View 32 v70,2013-02-03 08:00:00,
2013-02-03 03:05:00,47.0,40.8,30.17,NNW,337,0.0,0.0,79,0.00,,,0.00,Weather View 32 v70,2013-02-03 08:05:00,
2013-02-03 03:10:00,46.0,39.8,30.17,NNW,337,0.0,0.0,79,0.00,,,0.00,Weather View 32 v70,2013-02-03 08:10:00,
2013-02-03 03:15:00,47.0,40.8,30.17,NNW,337,0.0,0.0,79,0.00,,,0.00,Weather View 32 v70,2013-02-03 08:15:00,
2013-02-03 03:20:00,46.0,39.8,30.17,NNW,337,0.0,0.0,79,0.00,,,0.00,Weather View 32 v70,2013-02-03 08:20:00,
2013-02-03 03:25:00,46.0,39.8,30.17,NNW,337,0.0,0.0,79,0.00,,,0.00,Weather View 32 v70,2013-02-03 08:25:00,
2013-02-03 03:30:00,46.0,39.5,30.17,NNW,337,0.0,0.0,78,0.00,,,0.00,Weather View 32 v70,2013-02-03 08:30:00,
2013-02-03 03:35:00,46.0,39.5,30.17,NNW,337,0.0,0.0,78,0.00,,,0.00,Weather View 32 v70,2013-02-03 08:35:00,
2013-02-03 03:40:00,46.0,39.2,30.17,NNW,337,0.0,0.0,77,0.00,,,0.00,Weather View 32 v70,2013-02-03 08:40:00,
2013-02-03 03:45:00,45.0,38.2,30.17,NNW,337,0.0,0.0,77,0.00,,,0.00,Weather View 32 v70,2013-02-03 08:45:00,
2013-02-03 03:50:00,46.0,39.2,30.17,NNW,337,0.0,0.0,77,0.00,,,0.00,Weather View 32 v70,2013-02-03 08:50:00,
2013-02-03 03:55:00,46.0,38.8,30.17,North,360,1.0,1.0,76,0.00,,,0.00,Weather View 32 v70,2013-02-03 08:55:00,
2013-02-03 04:00:00,46.0,38.8,30.17,North,360,0.0,1.0,76,0.00,,,0.00,Weather View 32 v70,2013-02-03 09:00:00,
2013-02-03 04:05:00,46.0,38.8,30.17,North,360,0.0,1.0,76,0.00,,,0.00,Weather View 32 v70,2013-02-03 09:05:00,
2013-02-03 04:15:00,46.0,38.8,30.17,North,360,0.0,1.0,76,0.00,,,0.00,Weather View 32 v70,2013-02-03 09:15:00,
2013-02-03 04:20:00,46.0,38.5,30.17,North,360,0.0,1.0,75,0.00,,,0.00,Weather View 32 v70,2013-02-03 09:20:00,
2013-02-03 04:25:00,46.0,38.2,30.17,North,360,0.0,1.0,74,0.00,,,0.00,Weather View 32 v70,2013-02-03 09:25:00,
2013-02-03 04:30:00,46.0,38.2,30.17,North,360,0.0,1.0,74,0.00,,,0.00,Weather View 32 v70,2013-02-03 09:30:00,
2013-02-03 04:35:00,46.0,38.2,30.17,North,360,0.0,1.0,74,0.00,,,0.00,Weather View 32 v70,2013-02-03 09:35:00,
2013-02-03 04:40:00,45.0,36.9,30.17,North,360,0.0,1.0,73,0.00,,,0.00,Weather View 32 v70,2013-02-03 09:40:00,
2013-02-03 04:45:00,45.0,36.9,30.17,North,360,0.0,1.0,73,0.00,,,0.00,Weather View 32 v70,2013-02-03 09:45:00,
2013-02-03 04:50:00,45.0,36.9,30.17,North,360,0.0,1.0,73,0.00,,,0.00,Weather View 32 v70,2013-02-03 09:50:00,
2013-02-03 04:55:00,44.0,37.2,30.17,North,360,0.0,1.0,77,0.00,,,0.00,Weather View 32 v70,2013-02-03 09:55:00,
2013-02-03 05:00:00,44.0,36.9,30.17,North,360,0.0,0.0,76,0.00,,,0.00,Weather View 32 v70,2013-02-03 10:00:00,
2013-02-03 05:05:00,44.0,35.5,30.17,North,360,0.0,0.0,72,0.00,,,0.00,Weather View 32 v70,2013-02-03 10:05:00,
2013-02-03 05:10:00,44.0,35.2,30.17,North,360,0.0,0.0,71,0.00,,,0.00,Weather View 32 v70,2013-02-03 10:10:00,
2013-02-03 05:15:00,44.0,35.2,30.17,North,360,0.0,0.0,71,0.00,,,0.00,Weather View 32 v70,2013-02-03 10:15:00,
2013-02-03 05:20:00,45.0,35.8,30.17,North,360,0.0,0.0,70,0.00,,,0.00,Weather View 32 v70,2013-02-03 10:20:00,
2013-02-03 05:30:00,45.0,35.4,30.18,North,360,0.0,0.0,69,0.00,,,0.00,Weather View 32 v70,2013-02-03 10:30:00,
2013-02-03 05:35:00,45.0,35.4,30.18,North,360,0.0,0.0,69,0.00,,,0.00,Weather View 32 v70,2013-02-03 10:35:00,
2013-02-03 05:40:00,44.0,34.5,30.18,North,360,0.0,0.0,69,0.00,,,0.00,Weather View 32 v70,2013-02-03 10:40:00,
2013-02-03 05:50:00,44.0,34.1,30.18,North,360,0.0,0.0,68,0.00,,,0.00,Weather View 32 v70,2013-02-03 10:50:00,
2013-02-03 05:55:00,44.0,34.1,30.18,North,360,0.0,0.0,68,0.00,,,0.00,Weather View 32 v70,2013-02-03 10:55:00,
2013-02-03 06:05:00,44.0,34.1,30.18,North,360,0.0,0.0,68,0.00,,,0.00,Weather View 32 v70,2013-02-03 11:05:00,
2013-02-03 06:10:00,44.0,33.7,30.19,North,360,0.0,0.0,67,0.00,,,0.00,Weather View 32 v70,2013-02-03 11:10:00,
2013-02-03 06:15:00,44.0,33.7,30.19,North,360,0.0,0.0,67,0.00,,,0.00,Weather View 32 v70,2013-02-03 11:15:00,
2013-02-03 06:20:00,44.0,33.7,30.19,North,360,0.0,0.0,67,0.00,,,0.00,Weather View 32 v70,2013-02-03 11:20:00,
2013-02-03 06:25:00,44.0,33.7,30.19,North,360,0.0,0.0,67,0.00,,,0.00,Weather View 32 v70,2013-02-03 11:25:00,
2013-02-03 06:30:00,44.0,33.7,30.19,North,360,0.0,0.0,67,0.00,,,0.00,Weather View 32 v70,2013-02-03 11:30:00,
2013-02-03 06:35:00,44.0,33.7,30.19,North,360,0.0,0.0,67,0.00,,,0.00,Weather View 32 v70,2013-02-03 11:35:00,
2013-02-03 06:40:00,44.0,33.7,30.19,North,360,0.0,0.0,67,0.00,,,0.00,Weather View 32 v70,2013-02-03 11:40:00,
2013-02-03 06:50:00,44.0,33.4,30.20,North,360,0.0,0.0,66,0.00,,,0.00,Weather View 32 v70,2013-02-03 11:50:00,
2013-02-03 06:55:00,43.0,32.4,30.20,North,360,0.0,0.0,66,0.00,,,0.00,Weather View 32 v70,2013-02-03 11:55:00,
2013-02-03 07:00:00,44.0,33.4,30.20,North,360,0.0,0.0,66,0.00,,,0.00,Weather View 32 v70,2013-02-03 12:00:00,
2013-02-03 07:05:00,44.0,33.4,30.20,North,360,0.0,0.0,66,0.00,,,0.00,Weather View 32 v70,2013-02-03 12:05:00,
2013-02-03 07:10:00,45.0,34.3,30.20,North,360,0.0,0.0,66,0.00,,,0.00,Weather View 32 v70,2013-02-03 12:10:00,
2013-02-03 07:15:00,45.0,33.9,30.20,North,360,0.0,0.0,65,0.00,,,0.00,Weather View 32 v70,2013-02-03 12:15:00,
2013-02-03 07:20:00,45.0,33.9,30.21,North,360,0.0,0.0,65,0.00,,,0.00,Weather View 32 v70,2013-02-03 12:20:00,
2013-02-03 07:25:00,45.0,33.9,30.21,North,360,0.0,0.0,65,0.00,,,0.00,Weather View 32 v70,2013-02-03 12:25:00,
2013-02-03 07:30:00,45.0,33.9,30.21,North,360,0.0,0.0,65,0.00,,,0.00,Weather View 32 v70,2013-02-03 12:30:00,
2013-02-03 07:35:00,45.0,33.9,30.21,North,360,0.0,0.0,65,0.00,,,0.00,Weather View 32 v70,2013-02-03 12:35:00,
2013-02-03 07:40:00,45.0,33.9,30.21,North,360,0.0,0.0,65,0.00,,,0.00,Weather View 32 v70,2013-02-03 12:40:00,
2013-02-03 07:45:00,45.0,33.9,30.22,North,360,0.0,0.0,65,0.00,,,0.00,Weather View 32 v70,2013-02-03 12:45:00,
2013-02-03 07:50:00,45.0,33.9,30.22,North,360,0.0,0.0,65,0.00,,,0.00,Weather View 32 v70,2013-02-03 12:50:00,
2013-02-03 07:55:00,45.0,33.9,30.22,North,360,0.0,0.0,65,0.00,,,0.00,Weather View 32 v70,2013-02-03 12:55:00,
2013-02-03 08:00:00,46.0,34.9,30.23,North,360,0.0,0.0,65,0.00,,,0.00,Weather View 32 v70,2013-02-03 13:00:00,
2013-02-03 08:05:00,47.0,35.4,30.23,North,360,0.0,0.0,64,0.00,,,0.00,Weather View 32 v70,2013-02-03 13:05:00,
2013-02-03 08:10:00,47.0,35.4,30.23,North,360,0.0,0.0,64,0.00,,,0.00,Weather View 32 v70,2013-02-03 13:10:00,
2013-02-03 08:20:00,49.0,37.7,30.25,North,360,0.0,0.0,65,0.00,,,0.00,Weather View 32 v70,2013-02-03 13:20:00,
2013-02-03 08:25:00,51.0,40.0,30.25,North,360,0.0,0.0,66,0.00,,,0.00,Weather View 32 v70,2013-02-03 13:25:00,
2013-02-03 08:30:00,52.0,41.0,30.26,North,360,0.0,0.0,66,0.00,,,0.00,Weather View 32 v70,2013-02-03 13:30:00,
2013-02-03 08:35:00,52.0,41.4,30.26,North,360,0.0,0.0,67,0.00,,,0.00,Weather View 32 v70,2013-02-03 13:35:00,
2013-02-03 08:40:00,53.0,42.7,30.26,North,360,0.0,0.0,68,0.00,,,0.00,Weather View 32 v70,2013-02-03 13:40:00,
2013-02-03 08:45:00,53.0,43.5,30.27,North,360,0.0,0.0,70,0.00,,,0.00,Weather View 32 v70,2013-02-03 13:45:00,
2013-02-03 08:50:00,53.0,44.6,30.27,North,360,0.0,0.0,73,0.00,,,0.00,Weather View 32 v70,2013-02-03 13:50:00,
2013-02-03 08:55:00,54.0,46.6,30.27,ENE,67,0.0,3.0,76,0.00,,,0.00,Weather View 32 v70,2013-02-03 13:55:00,
2013-02-03 09:00:00,54.0,46.9,30.27,ENE,67,0.0,3.0,77,0.00,,,0.00,Weather View 32 v70,2013-02-03 14:00:00,
2013-02-03 09:05:00,55.0,49.3,30.27,ENE,67,0.0,3.0,81,0.00,,,0.00,Weather View 32 v70,2013-02-03 14:05:00,
2013-02-03 09:10:00,55.0,48.6,30.27,ENE,67,0.0,3.0,79,0.00,,,0.00,Weather View 32 v70,2013-02-03 14:10:00,
2013-02-03 09:15:00,55.0,48.6,30.27,ENE,67,0.0,3.0,79,0.00,,,0.00,Weather View 32 v70,2013-02-03 14:15:00,
2013-02-03 09:20:00,56.0,49.6,30.28,ENE,67,0.0,3.0,79,0.00,,,0.00,Weather View 32 v70,2013-02-03 14:20:00,
2013-02-03 09:25:00,57.0,51.2,30.28,ENE,67,0.0,3.0,81,0.00,,,0.00,Weather View 32 v70,2013-02-03 14:25:00,
2013-02-03 09:30:00,57.0,50.9,30.28,ENE,67,0.0,3.0,80,0.00,,,0.00,Weather View 32 v70,2013-02-03 14:30:00,
2013-02-03 09:35:00,58.0,52.2,30.29,ENE,67,0.0,3.0,81,0.00,,,0.00,Weather View 32 v70,2013-02-03 14:35:00,
2013-02-03 09:42:00,60.0,54.5,30.29,ENE,67,0.0,3.0,82,0.00,,,0.00,Weather View 32 v70,2013-02-03 14:42:00,
2013-02-03 09:55:00,62.0,56.4,30.30,NNW,337,0.0,3.0,82,0.00,,,0.00,Weather View 32 v70,2013-02-03 14:55:00,
2013-02-03 10:00:00,62.0,56.4,30.31,North,360,1.0,3.0,82,0.00,,,0.00,Weather View 32 v70,2013-02-03 15:00:00,
2013-02-03 10:10:00,63.0,57.4,30.31,ENE,67,0.0,4.0,82,0.00,,,0.00,Weather View 32 v70,2013-02-03 15:10:00,
2013-02-03 10:15:00,64.0,58.7,30.31,NNW,337,2.0,4.0,83,0.00,,,0.00,Weather View 32 v70,2013-02-03 15:15:00,
2013-02-03 10:20:00,65.0,59.7,30.31,NNW,337,2.0,4.0,83,0.00,,,0.00,Weather View 32 v70,2013-02-03 15:20:00,
2013-02-03 10:35:00,65.0,59.7,30.31,North,360,0.0,7.0,83,0.00,,,0.00,Weather View 32 v70,2013-02-03 15:35:00,
2013-02-03 10:40:00,66.0,60.7,30.31,North,360,0.0,7.0,83,0.00,,,0.00,Weather View 32 v70,2013-02-03 15:40:00,
2013-02-03 10:45:00,66.0,60.7,30.31,NNW,337,2.0,7.0,83,0.00,,,0.00,Weather View 32 v70,2013-02-03 15:45:00,
2013-02-03 10:50:00,63.0,57.4,30.31,NNW,337,3.0,7.0,82,0.00,,,0.00,Weather View 32 v70,2013-02-03 15:50:00,
2013-02-03 11:00:00,63.0,57.4,30.31,North,360,9.0,9.0,82,0.00,,,0.00,Weather View 32 v70,2013-02-03 16:00:00,
2013-02-03 11:05:00,64.0,58.7,30.31,NNW,337,6.0,9.0,83,0.00,,,0.00,Weather View 32 v70,2013-02-03 16:05:00,
2013-02-03 11:10:00,64.0,58.7,30.30,NNW,337,7.0,9.0,83,0.00,,,0.00,Weather View 32 v70,2013-02-03 16:10:00,
2013-02-03 11:25:00,65.0,59.7,30.30,NNW,337,12.0,14.0,83,0.00,,,0.00,Weather View 32 v70,2013-02-03 16:25:00,
2013-02-03 12:20:00,66.0,60.7,30.29,North,360,7.0,15.0,83,0.00,,,0.00,Weather View 32 v70,2013-02-03 17:20:00,
2013-02-03 12:30:00,66.0,60.7,30.28,NNW,337,12.0,15.0,83,0.00,,,0.00,Weather View 32 v70,2013-02-03 17:30:00,
2013-02-03 12:35:00,65.0,59.7,30.28,NNW,337,13.0,15.0,83,0.00,,,0.00,Weather View 32 v70,2013-02-03 17:35:00,
2013-02-03 16:40:00,64.0,58.7,30.21,NNW,337,8.0,8.0,83,0.00,,,0.00,Weather View 32 v70,2013-02-03 21:40:00,
2013-02-03 17:35:00,61.0,55.1,30.20,NNW,337,4.0,9.0,81,0.00,,,0.00,Weather View 32 v70,2013-02-03 22:35:00,
2013-02-03 17:50:00,60.0,54.5,30.20,NNW,337,6.0,9.0,82,0.00,,,0.00,Weather View 32 v70,2013-02-03 22:50:00,
2013-02-03 17:55:00,60.0,54.5,30.20,NNW,337,7.0,9.0,82,0.00,,,0.00,Weather View 32 v70,2013-02-03 22:55:00,
2013-02-03 18:15:00,58.0,51.8,30.19,NNW,337,6.0,9.0,80,0.00,,,0.00,Weather View 32 v70,2013-02-03 23:15:00,
2013-02-03 18:30:00,58.0,51.5,30.19,NNW,337,7.0,9.0,79,0.00,,,0.00,Weather View 32 v70,2013-02-03 23:30:00,
2013-02-03 18:35:00,58.0,51.5,30.19,NNW,337,2.0,7.0,79,0.00,,,0.00,Weather View 32 v70,2013-02-03 23:35:00,
2013-02-03 18:45:00,57.0,50.9,30.19,NNW,337,6.0,7.0,80,0.00,,,0.00,Weather View 32 v70,2013-02-03 23:45:00,
2013-02-03 19:00:00,57.0,50.2,30.18,NNW,337,4.0,7.0,78,0.00,,,0.00,Weather View 32 v70,2013-02-04 00:00:00,
2013-02-03 19:15:00,56.0,49.2,30.18,NNW,337,4.0,7.0,78,0.00,,,0.00,Weather View 32 v70,2013-02-04 00:15:00,
2013-02-03 19:20:00,56.0,49.2,30.18,NNW,337,3.0,7.0,78,0.00,,,0.00,Weather View 32 v70,2013-02-04 00:20:00,
2013-02-03 19:25:00,56.0,49.2,30.18,NNW,337,2.0,7.0,78,0.00,,,0.00,Weather View 32 v70,2013-02-04 00:25:00,
2013-02-03 19:30:00,56.0,48.9,30.18,NNW,337,2.0,7.0,77,0.00,,,0.00,Weather View 32 v70,2013-02-04 00:30:00,
2013-02-03 19:45:00,55.0,48.6,30.18,NNW,337,1.0,6.0,79,0.00,,,0.00,Weather View 32 v70,2013-02-04 00:45:00,
2013-02-03 19:55:00,55.0,48.6,30.18,NNW,337,4.0,4.0,79,0.00,,,0.00,Weather View 32 v70,2013-02-04 00:55:00,
2013-02-03 20:00:00,55.0,47.6,30.18,NNW,337,1.0,4.0,76,0.00,,,0.00,Weather View 32 v70,2013-02-04 01:00:00,
2013-02-03 20:05:00,55.0,47.6,30.18,NNW,337,0.0,4.0,76,0.00,,,0.00,Weather View 32 v70,2013-02-04 01:05:00,
2013-02-03 20:15:00,55.0,48.6,30.18,WSW,247,0.0,4.0,79,0.00,,,0.00,Weather View 32 v70,2013-02-04 01:15:00,
2013-02-03 20:20:00,54.0,47.6,30.18,WSW,247,0.0,4.0,79,0.00,,,0.00,Weather View 32 v70,2013-02-04 01:20:00,
2013-02-03 20:25:00,54.0,47.6,30.18,WSW,247,0.0,4.0,79,0.00,,,0.00,Weather View 32 v70,2013-02-04 01:25:00,
2013-02-03 20:30:00,54.0,45.9,30.19,WSW,247,1.0,4.0,74,0.00,,,0.00,Weather View 32 v70,2013-02-04 01:30:00,
2013-02-03 20:35:00,54.0,47.6,30.19,WSW,247,0.0,4.0,79,0.00,,,0.00,Weather View 32 v70,2013-02-04 01:35:00,
2013-02-03 20:40:00,54.0,45.9,30.19,WSW,247,0.0,4.0,74,0.00,,,0.00,Weather View 32 v70,2013-02-04 01:40:00,
2013-02-03 20:45:00,53.0,46.3,30.19,WSW,247,0.0,4.0,78,0.00,,,0.00,Weather View 32 v70,2013-02-04 01:45:00,
2013-02-03 20:50:00,53.0,46.3,30.19,WSW,247,0.0,4.0,78,0.00,,,0.00,Weather View 32 v70,2013-02-04 01:50:00,
2013-02-03 20:55:00,52.0,43.6,30.19,WSW,247,0.0,4.0,73,0.00,,,0.00,Weather View 32 v70,2013-02-04 01:55:00,
2013-02-03 21:00:00,52.0,43.6,30.19,WSW,247,0.0,4.0,73,0.00,,,0.00,Weather View 32 v70,2013-02-04 02:00:00,
2013-02-03 21:05:00,52.0,43.2,30.19,WSW,247,1.0,1.0,72,0.00,,,0.00,Weather View 32 v70,2013-02-04 02:05:00,
2013-02-03 21:10:00,53.0,46.0,30.19,WSW,247,0.0,1.0,77,0.00,,,0.00,Weather View 32 v70,2013-02-04 02:10:00,
2013-02-03 21:15:00,53.0,43.8,30.19,WSW,247,0.0,1.0,71,0.00,,,0.00,Weather View 32 v70,2013-02-04 02:15:00,
2013-02-03 21:20:00,53.0,46.0,30.18,WSW,247,0.0,1.0,77,0.00,,,0.00,Weather View 32 v70,2013-02-04 02:20:00,
2013-02-03 21:30:00,52.0,45.0,30.18,WSW,247,1.0,1.0,77,0.00,,,0.00,Weather View 32 v70,2013-02-04 02:30:00,
2013-02-03 21:35:00,52.0,44.0,30.18,NNW,337,2.0,2.0,74,0.00,,,0.00,Weather View 32 v70,2013-02-04 02:35:00,
2013-02-03 21:40:00,52.0,44.3,30.18,NNW,337,0.0,2.0,75,0.00,,,0.00,Weather View 32 v70,2013-02-04 02:40:00,
2013-02-03 21:45:00,52.0,44.3,30.18,NNW,337,0.0,2.0,75,0.00,,,0.00,Weather View 32 v70,2013-02-04 02:45:00,
2013-02-03 21:50:00,52.0,44.7,30.18,NNW,337,1.0,2.0,76,0.00,,,0.00,Weather View 32 v70,2013-02-04 02:50:00,
2013-02-03 21:55:00,52.0,45.0,30.18,NNW,337,2.0,2.0,77,0.00,,,0.00,Weather View 32 v70,2013-02-04 02:55:00,
2013-02-03 22:00:00,52.0,45.0,30.18,NNW,337,2.0,3.0,77,0.00,,,0.00,Weather View 32 v70,2013-02-04 03:00:00,
2013-02-03 22:05:00,52.0,45.3,30.18,NNW,337,1.0,3.0,78,0.00,,,0.00,Weather View 32 v70,2013-02-04 03:05:00,
2013-02-03 22:10:00,52.0,45.3,30.18,WSW,247,0.0,3.0,78,0.00,,,0.00,Weather View 32 v70,2013-02-04 03:10:00,
2013-02-03 22:15:00,53.0,47.0,30.18,WSW,247,4.0,4.0,80,0.00,,,0.00,Weather View 32 v70,2013-02-04 03:15:00,
2013-02-03 22:20:00,53.0,46.6,30.18,WSW,247,2.0,4.0,79,0.00,,,0.00,Weather View 32 v70,2013-02-04 03:20:00,
2013-02-03 22:25:00,53.0,47.0,30.18,WSW,247,2.0,4.0,80,0.00,,,0.00,Weather View 32 v70,2013-02-04 03:25:00,
2013-02-03 22:30:00,53.0,47.0,30.18,NNW,337,2.0,4.0,80,0.00,,,0.00,Weather View 32 v70,2013-02-04 03:30:00,
2013-02-03 22:35:00,53.0,47.0,30.18,WSW,247,3.0,4.0,80,0.00,,,0.00,Weather View 32 v70,2013-02-04 03:35:00,
2013-02-03 22:40:00,53.0,47.0,30.18,NNW,337,1.0,4.0,80,0.00,,,0.00,Weather View 32 v70,2013-02-04 03:40:00,
2013-02-03 22:45:00,53.0,47.0,30.18,NNW,337,1.0,4.0,80,0.00,,,0.00,Weather View 32 v70,2013-02-04 03:45:00,
2013-02-03 22:50:00,53.0,47.0,30.18,NNW,337,2.0,4.0,80,0.00,,,0.00,Weather View 32 v70,2013-02-04 03:50:00,
2013-02-03 23:00:00,53.0,47.0,30.17,NNW,337,2.0,4.0,80,0.00,,,0.00,Weather View 32 v70,2013-02-04 04:00:00,
2013-02-03 23:05:00,53.0,47.0,30.17,NNW,337,3.0,4.0,80,0.00,,,0.00,Weather View 32 v70,2013-02-04 04:05:00,
2013-02-03 23:10:00,53.0,47.0,30.17,NNW,337,5.0,6.0,80,0.00,,,0.00,Weather View 32 v70,2013-02-04 04:10:00,
2013-02-03 23:15:00,53.0,47.0,30.17,NNW,337,1.0,6.0,80,0.00,,,0.00,Weather View 32 v70,2013-02-04 04:15:00,
2013-02-03 23:20:00,53.0,47.0,30.17,NNW,337,1.0,6.0,80,0.00,,,0.00,Weather View 32 v70,2013-02-04 04:20:00,
2013-02-03 23:25:00,52.0,46.0,30.17,NNW,337,0.0,6.0,80,0.00,,,0.00,Weather View 32 v70,2013-02-04 04:25:00,
2013-02-03 23:30:00,52.0,46.0,30.17,WSW,247,0.0,6.0,80,0.00,,,0.00,Weather View 32 v70,2013-02-04 04:30:00,
2013-02-03 23:40:00,52.0,46.0,30.17,WSW,247,0.0,6.0,80,0.00,,,0.00,Weather View 32 v70,2013-02-04 04:40:00,
2013-02-03 23:45:00,51.0,45.0,30.17,WSW,247,0.0,6.0,80,0.00,,,0.00,Weather View 32 v70,2013-02-04 04:45:00,
2013-02-03 23:50:00,51.0,45.0,30.17,WSW,247,0.0,6.0,80,0.00,,,0.00,Weather View 32 v70,2013-02-04 04:50:00,
2013-02-03 23:55:00,50.0,44.1,30.16,WSW,247,0.0,6.0,80,0.00,,,0.00,Weather View 32 v70,2013-02-04 04:55:00,